createdAt,value
2022-08-05T00:02:21.939Z,9.35
2022-08-05T00:04:55.377Z,10.65
2022-08-05T00:07:59.330Z,11.63
2022-08-05T00:10:10.201Z,11.25
2022-08-05T00:12:55.808Z,13.57
2022-08-05T00:15:56.099Z,10.80
2022-08-05T00:18:21.593Z,12.27
2022-08-05T00:20:49.030Z,11.57
2022-08-05T00:23:15.953Z,10.43
2022-08-05T00:25:46.048Z,11.07
2022-08-05T00:28:13.635Z,11.43
2022-08-05T00:30:41.242Z,10.98
2022-08-05T00:33:15.712Z,9.70
2022-08-05T00:36:14.966Z,12.05
2022-08-05T00:38:44.173Z,13.52
2022-08-05T00:41:11.514Z,10.35
2022-08-05T00:43:47.317Z,12.30
2022-08-05T00:46:16.424Z,12.55
2022-08-05T00:48:50.395Z,12.73
2022-08-05T00:51:50.305Z,14.02
2022-08-05T00:54:06.307Z,14.77
2022-08-05T00:56:33.001Z,10.90
2022-08-05T00:59:00.368Z,11.70
2022-08-05T01:01:42.953Z,14.80
2022-08-05T01:04:15.712Z,10.73
2022-08-05T01:06:46.672Z,16.42
2022-08-05T01:09:19.867Z,14.25
2022-08-05T01:11:49.725Z,11.93
2022-08-05T01:14:40.060Z,13.77
2022-08-05T01:17:11.586Z,13.65
2022-08-05T01:20:00.863Z,13.35
2022-08-05T01:22:53.073Z,16.30
2022-08-05T01:25:54.065Z,20.88
2022-08-05T01:28:30.758Z,24.63
2022-08-05T01:34:02.993Z,16.20
2022-08-05T01:36:35.415Z,14.15
2022-08-05T01:39:10.969Z,18.55
2022-08-05T01:41:39.168Z,47.95
2022-08-05T01:44:12.163Z,29.08
2022-08-05T01:46:46.418Z,23.15
2022-08-05T01:49:23.724Z,29.33
2022-08-05T01:51:56.258Z,34.53
2022-08-05T01:54:28.818Z,32.67
2022-08-05T01:58:10.467Z,32.42
2022-08-05T01:59:48.202Z,32.65
2022-08-05T02:02:16.471Z,33.53
2022-08-05T02:04:46.329Z,31.10
2022-08-05T02:07:22.132Z,29.75
2022-08-05T02:09:50.329Z,32.65
2022-08-05T02:12:37.170Z,34.85
2022-08-05T02:15:12.715Z,35.08
2022-08-05T02:18:33.179Z,30.50
2022-08-05T02:20:48.662Z,30.38
2022-08-05T02:23:20.045Z,36.58
2022-08-05T02:25:50.574Z,42.20
2022-08-05T02:28:29.017Z,35.47
2022-08-05T02:31:04.034Z,32.50
2022-08-05T02:33:38.937Z,38.50
2022-08-05T02:36:13.597Z,39.75
2022-08-05T02:38:53.657Z,36.05
2022-08-05T02:41:22.959Z,32.08
2022-08-05T02:44:02.459Z,37.08
2022-08-05T02:46:35.883Z,40.42
2022-08-05T02:49:21.846Z,35.47
2022-08-05T02:52:04.289Z,36.20
2022-08-05T02:54:35.617Z,35.42
2022-08-05T02:57:10.271Z,35.17
2022-08-05T02:59:54.711Z,38.42
2022-08-05T03:02:27.778Z,34.30
2022-08-05T03:04:57.254Z,35.63
2022-08-05T03:07:59.272Z,37.42
2022-08-05T03:10:15.753Z,40.42
2022-08-05T03:12:51.929Z,41.83
2022-08-05T03:15:19.975Z,49.05
2022-08-05T03:17:46.686Z,40.28
2022-08-05T03:20:13.731Z,39.97
2022-08-05T03:22:46.930Z,44.78
2022-08-05T03:25:32.377Z,34.92
2022-08-05T03:28:08.265Z,34.65
2022-08-05T03:30:36.672Z,35.05
2022-08-05T03:33:07.264Z,33.85
2022-08-05T03:35:40.715Z,36.05
2022-08-05T03:38:10.565Z,34.63
2022-08-05T03:40:45.040Z,36.45
2022-08-05T03:43:58.492Z,30.42
2022-08-05T03:48:29.250Z,32.40
2022-08-05T03:52:50.203Z,39.45
2022-08-05T03:55:49.852Z,33.22
2022-08-05T03:57:16.127Z,36.28
2022-08-05T03:59:54.844Z,42.78
2022-08-05T04:02:37.849Z,34.05
2022-08-05T04:05:09.634Z,36.65
2022-08-05T04:07:57.096Z,37.53
2022-08-05T04:10:27.804Z,37.58
2022-08-05T04:12:56.329Z,36.40
2022-08-05T04:15:32.870Z,40.10
2022-08-05T04:18:06.663Z,38.00
2022-08-05T04:20:34.506Z,31.75
2022-08-05T04:23:01.560Z,35.65
2022-08-05T04:25:56.619Z,37.53
2022-08-05T04:28:15.105Z,37.47
2022-08-05T04:30:44.550Z,37.55
2022-08-05T04:33:12.602Z,27.55
2022-08-05T04:36:09.505Z,27.95
2022-08-05T04:38:39.576Z,26.88
2022-08-05T04:41:09.585Z,28.25
2022-08-05T04:43:37.787Z,24.70
2022-08-05T04:46:07.383Z,29.58
2022-08-05T04:48:34.250Z,35.83
2022-08-05T04:51:02.668Z,32.72
2022-08-05T04:53:33.695Z,37.83
2022-08-05T04:56:33.050Z,38.40
2022-08-05T04:58:50.095Z,34.70
2022-08-05T05:02:06.075Z,39.33
2022-08-05T05:04:04.737Z,37.83
2022-08-05T05:06:40.440Z,45.28
2022-08-05T05:09:14.078Z,43.75
2022-08-05T05:11:53.999Z,47.85
2022-08-05T05:14:31.830Z,44.25
2022-08-05T05:17:00.036Z,46.08
2022-08-05T05:19:36.562Z,48.42
2022-08-05T05:22:23.570Z,44.53
2022-08-05T05:24:57.319Z,50.67
2022-08-05T05:27:45.867Z,49.25
2022-08-05T05:30:29.292Z,54.28
2022-08-05T05:33:00.161Z,43.95
2022-08-05T05:35:29.188Z,49.08
2022-08-05T05:38:03.102Z,44.88
2022-08-05T05:40:34.358Z,53.25
2022-08-05T05:43:02.130Z,48.55
2022-08-05T05:45:29.516Z,46.67
2022-08-05T05:48:06.659Z,49.50
2022-08-05T05:50:41.189Z,47.63
2022-08-05T05:53:22.333Z,47.35
2022-08-05T05:55:51.927Z,49.67
2022-08-05T05:58:31.630Z,48.15
2022-08-05T06:01:12.986Z,56.42
2022-08-05T06:04:00.995Z,50.10
2022-08-05T06:06:30.932Z,67.25
2022-08-05T06:08:58.600Z,43.50
2022-08-05T06:11:25.316Z,36.10
2022-08-05T06:13:54.035Z,41.55
2022-08-05T06:16:30.016Z,38.13
2022-08-05T06:19:05.632Z,45.15
2022-08-05T06:21:36.531Z,40.97
2022-08-05T06:24:05.954Z,35.58
2022-08-05T06:26:33.980Z,34.63
2022-08-05T06:29:03.452Z,34.92
2022-08-05T06:31:42.151Z,26.63
2022-08-05T06:34:09.196Z,26.52
2022-08-05T06:36:53.565Z,26.55
2022-08-05T06:39:27.281Z,21.00
2022-08-05T06:41:58.661Z,23.92
2022-08-05T06:44:26.058Z,22.08
2022-08-05T06:46:52.838Z,23.77
2022-08-05T06:50:00.789Z,22.52
2022-08-05T06:52:36.977Z,25.08
2022-08-05T06:54:55.087Z,26.30
2022-08-05T06:57:57.393Z,25.50
2022-08-05T07:00:09.665Z,26.33
2022-08-05T07:02:47.034Z,20.25
2022-08-05T07:05:23.440Z,25.60
2022-08-05T07:08:04.503Z,22.67
2022-08-05T07:10:32.746Z,20.55
2022-08-05T07:13:39.460Z,21.38
2022-08-05T07:17:55.893Z,20.70
2022-08-05T07:19:10.275Z,22.13
2022-08-05T07:22:00.795Z,18.60
2022-08-05T07:24:24.578Z,17.50
2022-08-05T07:26:57.004Z,21.00
2022-08-05T07:30:21.900Z,22.15
2022-08-05T07:32:12.302Z,24.95
2022-08-05T07:34:42.469Z,26.08
2022-08-05T07:37:11.756Z,22.25
2022-08-05T07:40:04.004Z,25.23
2022-08-05T07:42:33.657Z,21.83
2022-08-05T07:45:00.844Z,24.60
2022-08-05T07:47:27.496Z,21.52
2022-08-05T07:50:09.735Z,26.70
2022-08-05T07:52:40.811Z,25.92
2022-08-05T07:55:43.925Z,19.50
2022-08-05T07:57:58.767Z,18.98
2022-08-05T08:00:29.593Z,19.35
2022-08-05T08:03:15.046Z,22.75
2022-08-05T08:05:49.238Z,19.53
2022-08-05T08:08:16.805Z,20.15
2022-08-05T08:10:48.884Z,19.13
2022-08-05T08:13:16.011Z,17.13
2022-08-05T08:16:34.948Z,18.15
2022-08-05T08:18:35.497Z,19.83
2022-08-05T08:21:09.436Z,21.23
2022-08-05T08:24:02.127Z,21.95
2022-08-05T08:26:30.097Z,20.45
2022-08-05T08:28:59.788Z,18.98
2022-08-05T08:31:45.082Z,18.75
2022-08-05T08:34:11.763Z,18.52
2022-08-05T08:36:48.819Z,20.50
2022-08-05T08:39:19.719Z,19.77
2022-08-05T08:41:51.857Z,18.40
2022-08-05T08:45:19.668Z,17.25
2022-08-05T08:48:05.722Z,16.58
2022-08-05T08:50:32.016Z,20.00
2022-08-05T08:53:12.287Z,17.42
2022-08-05T08:56:03.731Z,32.38
2022-08-05T08:58:37.480Z,37.35
2022-08-05T09:01:15.429Z,39.50
2022-08-05T09:03:46.806Z,35.83
2022-08-05T09:06:18.488Z,57.15
2022-08-05T09:08:47.084Z,43.90
2022-08-05T09:11:15.286Z,34.35
2022-08-05T09:14:10.065Z,26.42
2022-08-05T09:16:30.118Z,25.98
2022-08-05T09:18:59.468Z,25.80
2022-08-05T09:22:30.838Z,27.02
2022-08-05T09:24:15.522Z,23.83
2022-08-05T09:26:46.151Z,22.33
2022-08-05T09:29:18.738Z,19.42
2022-08-05T09:32:51.104Z,21.77
2022-08-05T09:34:54.928Z,18.83
2022-08-05T09:38:16.906Z,19.63
2022-08-05T09:40:36.373Z,21.38
2022-08-05T09:43:07.705Z,19.88
2022-08-05T09:46:07.369Z,32.08
2022-08-05T09:48:32.105Z,26.08
2022-08-05T09:51:01.847Z,33.55
2022-08-05T09:53:54.556Z,28.10
2022-08-05T09:56:33.389Z,26.35
2022-08-05T09:59:05.565Z,32.17
2022-08-05T10:01:35.114Z,27.55
2022-08-05T10:04:10.745Z,30.95
2022-08-05T10:06:40.471Z,29.20
2022-08-05T10:09:24.934Z,28.58
2022-08-05T10:11:54.632Z,25.92
2022-08-05T10:14:28.594Z,20.48
2022-08-05T10:17:36.779Z,13.45
2022-08-05T10:20:04.375Z,15.63
2022-08-05T10:22:42.771Z,14.02
2022-08-05T10:25:10.281Z,17.70
2022-08-05T10:28:09.744Z,16.85
2022-08-05T10:31:20.262Z,15.68
2022-08-05T10:33:15.459Z,15.40
2022-08-05T10:35:44.272Z,14.70
2022-08-05T10:38:13.172Z,13.07
2022-08-05T10:40:51.934Z,13.70
2022-08-05T10:43:24.474Z,14.43
2022-08-05T10:46:06.402Z,15.80
2022-08-05T10:48:40.619Z,12.23
2022-08-05T10:51:23.066Z,12.95
2022-08-05T10:53:58.423Z,12.45
2022-08-05T10:56:43.425Z,12.73
2022-08-05T11:00:02.484Z,16.88
2022-08-05T11:02:14.764Z,11.68
2022-08-05T11:04:58.006Z,14.63
2022-08-05T11:07:32.755Z,13.48
2022-08-05T11:10:27.678Z,13.52
2022-08-05T11:12:57.339Z,13.05
2022-08-05T11:16:00.642Z,15.68
2022-08-05T11:18:32.342Z,13.55
2022-08-05T11:21:00.129Z,11.60
2022-08-05T11:23:33.175Z,13.70
2022-08-05T11:26:08.811Z,14.18
2022-08-05T11:28:36.135Z,13.68
2022-08-05T11:31:06.251Z,13.90
2022-08-05T11:33:46.302Z,12.02
2022-08-05T11:36:34.604Z,12.00
2022-08-05T11:39:08.602Z,15.88
2022-08-05T11:42:01.392Z,11.88
2022-08-05T11:44:52.844Z,11.02
2022-08-05T11:47:22.157Z,13.65
2022-08-05T11:50:08.520Z,13.07
2022-08-05T11:52:35.250Z,10.80
2022-08-05T11:55:07.493Z,12.85
2022-08-05T11:58:08.374Z,11.82
2022-08-05T12:00:28.900Z,13.35
2022-08-05T12:02:56.559Z,12.25
2022-08-05T12:05:36.275Z,13.65
2022-08-05T12:08:09.745Z,14.65
2022-08-05T12:10:45.472Z,14.13
2022-08-05T12:13:27.987Z,13.70
2022-08-05T12:16:15.324Z,12.13
2022-08-05T12:18:52.186Z,14.00
2022-08-05T12:21:31.936Z,10.85
2022-08-05T12:24:07.692Z,12.48
2022-08-05T12:26:38.765Z,10.55
2022-08-05T12:29:09.816Z,13.57
2022-08-05T12:31:46.126Z,13.48
2022-08-05T12:34:21.716Z,14.95
2022-08-05T12:36:53.121Z,20.33
2022-08-05T12:39:19.973Z,12.43
2022-08-05T12:41:46.750Z,11.93
2022-08-05T12:44:32.712Z,13.50
2022-08-05T12:47:01.660Z,12.00
2022-08-05T12:50:03.114Z,11.27
2022-08-05T12:52:32.367Z,12.68
2022-08-05T12:55:23.025Z,13.40
2022-08-05T12:58:50.395Z,13.80
2022-08-05T13:02:03.683Z,13.77
2022-08-05T13:03:32.463Z,14.27
2022-08-05T13:06:01.029Z,11.73
2022-08-05T13:08:32.363Z,12.40
2022-08-05T13:11:04.298Z,11.32
2022-08-05T13:14:05.052Z,14.52
2022-08-05T13:16:19.490Z,12.77
2022-08-05T13:18:57.634Z,13.93
2022-08-05T13:21:27.676Z,11.07
2022-08-05T13:23:55.550Z,10.77
2022-08-05T13:26:29.883Z,12.07
2022-08-05T13:28:57.267Z,9.27
2022-08-05T13:31:33.857Z,13.43
2022-08-05T13:34:23.515Z,14.55
2022-08-05T13:36:53.247Z,9.98
2022-08-05T13:40:12.758Z,12.40
2022-08-05T13:42:06.933Z,13.68
2022-08-05T13:44:34.814Z,12.32
2022-08-05T13:47:08.420Z,11.90
2022-08-05T13:49:36.045Z,13.63
2022-08-05T13:52:12.698Z,11.93
2022-08-05T13:54:40.009Z,12.45
2022-08-05T13:57:08.163Z,17.92
2022-08-05T13:59:57.717Z,9.95
2022-08-05T14:02:26.699Z,10.35
2022-08-05T14:05:15.153Z,11.27
2022-08-05T14:08:00.497Z,8.00
2022-08-05T14:10:34.762Z,9.48
2022-08-05T14:13:01.492Z,8.10
2022-08-05T14:16:08.319Z,9.50
2022-08-05T14:18:18.116Z,9.65
2022-08-05T14:20:48.032Z,9.10
2022-08-05T14:23:24.620Z,9.68
2022-08-05T14:25:58.187Z,8.52
2022-08-05T14:28:27.858Z,11.02
2022-08-05T14:30:56.123Z,8.25
2022-08-05T14:33:23.866Z,7.07
2022-08-05T14:35:52.030Z,8.45
2022-08-05T14:38:32.216Z,8.25
2022-08-05T14:41:05.789Z,6.85
2022-08-05T14:43:59.606Z,7.20
2022-08-05T14:46:20.802Z,8.38
2022-08-05T14:48:49.934Z,8.00
2022-08-05T14:51:17.840Z,7.05
2022-08-05T14:53:45.159Z,9.38
2022-08-05T14:56:13.363Z,6.30
2022-08-05T14:58:47.766Z,8.23
2022-08-05T15:01:47.015Z,7.55
2022-08-05T15:06:38.972Z,8.73
2022-08-05T15:09:07.194Z,5.32
2022-08-05T15:11:53.122Z,7.50
2022-08-05T15:14:34.546Z,6.90
2022-08-05T15:17:04.725Z,6.80
2022-08-05T15:19:32.214Z,7.30
2022-08-05T15:22:01.195Z,7.70
2022-08-05T15:24:28.586Z,7.07
2022-08-05T15:26:56.019Z,6.65
2022-08-05T15:29:29.771Z,6.95
2022-08-05T15:32:03.363Z,7.13
2022-08-05T15:34:33.872Z,5.13
2022-08-05T15:37:06.595Z,24.38
2022-08-05T15:41:02.132Z,7.65
2022-08-05T15:42:54.290Z,6.15
2022-08-05T15:45:15.180Z,11.70
2022-08-05T15:47:42.877Z,7.85
2022-08-05T15:50:15.468Z,12.38
2022-08-05T15:52:54.314Z,12.38
2022-08-05T15:55:24.697Z,16.85
2022-08-05T15:58:09.647Z,7.82
2022-08-05T16:01:03.343Z,6.20
2022-08-05T16:03:30.581Z,10.32
2022-08-05T16:05:59.617Z,7.20
2022-08-05T16:08:30.647Z,6.20
2022-08-05T16:10:58.566Z,17.40
2022-08-05T16:13:34.331Z,6.43
2022-08-05T16:16:03.359Z,8.40
2022-08-05T16:18:32.637Z,9.77
2022-08-05T16:21:04.322Z,7.97
2022-08-05T16:23:33.115Z,6.70
2022-08-05T16:26:20.108Z,7.18
2022-08-05T16:28:53.153Z,4.20
2022-08-05T16:31:21.298Z,5.13
2022-08-05T16:33:48.421Z,6.53
2022-08-05T16:36:20.167Z,5.75
2022-08-05T16:38:54.422Z,5.78
2022-08-05T16:42:13.584Z,8.27
2022-08-05T16:44:11.090Z,8.27
2022-08-05T16:46:38.736Z,6.85
2022-08-05T16:49:10.018Z,5.50
2022-08-05T16:51:42.937Z,6.45
2022-08-05T16:54:25.713Z,6.95
2022-08-05T16:56:55.636Z,5.10
2022-08-05T16:59:22.929Z,4.55
2022-08-05T17:01:54.588Z,5.30
2022-08-05T17:04:26.466Z,5.03
2022-08-05T17:06:55.306Z,5.57
2022-08-05T17:09:23.109Z,8.85
2022-08-05T17:11:54.653Z,8.25
2022-08-05T17:14:34.347Z,6.30
2022-08-05T17:17:05.828Z,6.20
2022-08-05T17:19:32.526Z,5.82
2022-08-05T17:22:01.291Z,6.07
2022-08-05T17:24:40.315Z,4.25
2022-08-05T17:27:12.994Z,7.82
2022-08-05T17:29:43.578Z,4.50
2022-08-05T17:32:17.327Z,7.72
2022-08-05T17:34:47.789Z,7.07
2022-08-05T17:37:39.303Z,5.20
2022-08-05T17:40:10.242Z,7.88
2022-08-05T17:42:42.962Z,6.45
2022-08-05T17:45:21.107Z,5.97
2022-08-05T17:47:54.589Z,6.47
2022-08-05T17:50:28.435Z,13.48
2022-08-05T17:53:08.498Z,7.72
2022-08-05T17:55:39.441Z,12.73
2022-08-05T17:58:12.203Z,16.90
2022-08-05T18:00:47.147Z,8.32
2022-08-05T18:03:33.246Z,11.43
2022-08-05T18:06:06.087Z,7.85
2022-08-05T18:08:38.179Z,10.13
2022-08-05T18:11:07.448Z,7.15
2022-08-05T18:13:44.023Z,25.05
2022-08-05T18:16:13.363Z,7.30
2022-08-05T18:18:41.321Z,7.05
2022-08-05T18:21:13.213Z,16.35
2022-08-05T18:23:47.244Z,6.53
2022-08-05T18:26:14.613Z,9.88
2022-08-05T18:28:46.563Z,6.93
2022-08-05T18:31:15.704Z,7.20
2022-08-05T18:33:47.089Z,7.22
2022-08-05T18:36:17.460Z,5.82
2022-08-05T18:38:46.465Z,8.20
2022-08-05T18:41:57.176Z,8.35
2022-08-05T18:44:06.335Z,7.85
2022-08-05T18:46:34.549Z,6.97
2022-08-05T18:49:21.368Z,5.75
2022-08-05T18:52:08.516Z,7.53
2022-08-05T18:54:35.874Z,6.38
2022-08-05T18:57:09.546Z,7.75
2022-08-05T18:59:43.961Z,7.60
2022-08-05T19:02:28.919Z,5.82
2022-08-05T19:05:02.751Z,8.43
2022-08-05T19:07:47.887Z,4.95
2022-08-05T19:10:28.184Z,10.23
2022-08-05T19:12:56.173Z,8.45
2022-08-05T19:15:57.744Z,8.57
2022-08-05T19:18:20.855Z,8.82
2022-08-05T19:20:53.676Z,8.85
2022-08-05T19:23:22.403Z,8.18
2022-08-05T19:26:09.396Z,9.43
2022-08-05T19:28:41.802Z,8.00
2022-08-05T19:31:12.873Z,9.80
2022-08-05T19:33:40.597Z,8.00
2022-08-05T19:36:16.771Z,10.40
2022-08-05T19:38:45.194Z,10.43
2022-08-05T19:41:11.968Z,7.78
2022-08-05T19:44:05.629Z,7.72
2022-08-05T19:46:30.857Z,8.80
2022-08-05T19:49:03.513Z,9.43
2022-08-05T19:52:04.363Z,8.75
2022-08-05T19:54:26.777Z,9.65
2022-08-05T19:59:59.370Z,8.32
2022-08-05T20:02:14.558Z,8.52
2022-08-05T20:04:43.048Z,9.80
2022-08-05T20:07:13.085Z,10.00
2022-08-05T20:09:55.036Z,12.07
2022-08-05T20:12:24.573Z,11.20
2022-08-05T20:14:53.170Z,8.65
2022-08-05T20:17:23.980Z,10.15
2022-08-05T20:19:56.858Z,11.10
2022-08-05T20:22:27.132Z,10.50
2022-08-05T20:24:54.717Z,7.25
2022-08-05T20:27:27.059Z,8.70
2022-08-05T20:29:57.824Z,10.07
2022-08-05T20:32:26.401Z,7.50
2022-08-05T20:34:53.465Z,5.88
2022-08-05T20:38:06.385Z,6.13
2022-08-05T20:40:08.029Z,5.60
2022-08-05T20:42:34.723Z,8.32
2022-08-05T20:45:02.516Z,6.00
2022-08-05T20:47:32.272Z,6.75
2022-08-05T20:49:59.661Z,6.32
2022-08-05T20:52:29.091Z,7.10
2022-08-05T20:55:54.214Z,4.60
2022-08-05T20:57:44.641Z,6.90
2022-08-05T21:00:40.351Z,3.97
2022-08-05T21:03:06.126Z,6.63
2022-08-05T21:05:48.006Z,2.35
2022-08-05T21:08:26.547Z,3.72
2022-08-05T21:10:59.858Z,2.92
2022-08-05T21:13:47.463Z,4.47
2022-08-05T21:16:19.170Z,3.22
2022-08-05T21:18:46.109Z,13.48
2022-08-05T21:21:12.905Z,2.83
2022-08-05T21:23:39.633Z,4.20
2022-08-05T21:26:12.484Z,3.30
2022-08-05T21:28:50.618Z,10.25
2022-08-05T21:31:18.236Z,5.23
2022-08-05T21:33:47.878Z,5.45
2022-08-05T21:36:19.067Z,3.03
2022-08-05T21:38:54.648Z,6.00
2022-08-05T21:41:21.482Z,5.32
2022-08-05T21:43:50.898Z,3.75
2022-08-05T21:46:28.716Z,5.88
2022-08-05T21:48:56.656Z,7.15
2022-08-05T21:52:16.257Z,5.28
2022-08-05T21:54:10.236Z,7.40
2022-08-05T21:56:36.910Z,5.30
2022-08-05T21:59:24.205Z,6.00
2022-08-05T22:01:54.548Z,3.10
2022-08-05T22:04:25.367Z,5.93
2022-08-05T22:06:52.793Z,7.53
2022-08-05T22:09:20.825Z,8.02
2022-08-05T22:11:48.414Z,5.57
2022-08-05T22:14:33.885Z,3.30
2022-08-05T22:17:04.980Z,4.55
2022-08-05T22:20:01.193Z,4.57
2022-08-05T22:22:26.847Z,9.50
2022-08-05T22:25:21.565Z,4.40
2022-08-05T22:28:10.386Z,2.58
2022-08-05T22:30:55.370Z,5.03
2022-08-05T22:33:57.227Z,4.00
2022-08-05T22:36:15.034Z,2.65
2022-08-05T22:38:48.253Z,6.47
2022-08-05T22:41:16.495Z,5.10
2022-08-05T22:44:03.225Z,4.63
2022-08-05T22:46:29.919Z,5.32
2022-08-05T22:48:56.621Z,2.72
2022-08-05T22:52:04.579Z,5.70
2022-08-05T22:54:10.131Z,6.35
2022-08-05T22:56:36.874Z,11.00
2022-08-05T22:59:43.985Z,3.72
2022-08-05T23:02:03.986Z,6.70
2022-08-05T23:04:33.055Z,5.38
2022-08-05T23:06:59.798Z,4.05
2022-08-05T23:09:27.471Z,4.88
2022-08-05T23:12:13.365Z,4.28
2022-08-05T23:14:40.122Z,2.95
2022-08-05T23:17:34.202Z,4.13
2022-08-05T23:20:16.760Z,4.38
2022-08-05T23:22:48.611Z,5.82
2022-08-05T23:25:52.860Z,4.97
2022-08-05T23:28:07.099Z,7.07
2022-08-05T23:30:40.338Z,4.63
2022-08-05T23:33:21.859Z,2.88
2022-08-05T23:35:48.983Z,5.22
2022-08-05T23:38:16.454Z,8.18
2022-08-05T23:40:50.017Z,6.20
2022-08-05T23:43:25.635Z,10.57
2022-08-05T23:49:00.257Z,7.38
2022-08-05T23:51:54.995Z,5.32
2022-08-05T23:54:30.162Z,7.03
2022-08-05T23:57:03.409Z,4.70
